Time,TemperatureF,DewpointF,PressureIn,WindDirection,WindDirectionDegrees,WindSpeedMPH,WindSpeedGustMPH,Humidity,HourlyPrecipIn,Conditions,Clouds,dailyrainin,SoftwareType,DateUTC
2013-05-30 00:01:00,76.0,71.2,30.09,ESE,113,2.5,4.9,85,0.00,,,0.00,WUHU216HW,2013-05-30 04:01:00,
2013-05-30 00:06:00,76.0,71.2,30.09,SE,135,0.7,3.6,85,0.00,,,0.00,WUHU216HW,2013-05-30 04:06:00,
2013-05-30 00:11:00,75.8,71.0,30.09,SE,135,1.1,6.3,85,0.00,,,0.00,WUHU216HW,2013-05-30 04:11:00,
2013-05-30 00:16:00,75.8,71.0,30.09,ESE,113,0.4,6.3,85,0.00,,,0.00,WUHU216HW,2013-05-30 04:16:00,
2013-05-30 00:21:00,75.8,71.0,30.09,SE,135,1.1,3.6,85,0.00,,,0.00,WUHU216HW,2013-05-30 04:21:00,
2013-05-30 00:26:00,75.8,71.0,30.09,ESE,113,1.1,3.4,85,0.00,,,0.00,WUHU216HW,2013-05-30 04:26:00,
2013-05-30 00:31:00,75.8,71.4,30.09,East,90,0.4,4.0,86,0.00,,,0.00,WUHU216HW,2013-05-30 04:31:00,
2013-05-30 00:36:00,75.8,71.4,30.09,SE,135,0.4,4.0,86,0.00,,,0.00,WUHU216HW,2013-05-30 04:36:00,
2013-05-30 00:41:00,75.6,70.8,30.09,ESE,113,2.7,3.4,85,0.00,,,0.00,WUHU216HW,2013-05-30 04:41:00,
2013-05-30 00:46:00,75.6,70.8,30.09,ESE,113,1.8,3.4,85,0.00,,,0.00,WUHU216HW,2013-05-30 04:46:00,
2013-05-30 00:51:00,75.8,71.4,30.09,East,90,1.8,2.9,86,0.00,,,0.00,WUHU216HW,2013-05-30 04:51:00,
2013-05-30 00:56:00,75.6,70.8,30.09,NNW,338,1.3,2.9,85,0.00,,,0.00,WUHU216HW,2013-05-30 04:56:00,
2013-05-30 01:01:00,75.6,70.8,30.09,ESE,113,2.5,2.5,85,0.00,,,0.00,WUHU216HW,2013-05-30 05:01:00,
2013-05-30 01:06:00,75.6,70.8,30.09,ESE,113,1.6,3.1,85,0.00,,,0.00,WUHU216HW,2013-05-30 05:06:00,
2013-05-30 01:11:00,75.6,71.2,30.08,ENE,68,3.4,3.4,86,0.00,,,0.00,WUHU216HW,2013-05-30 05:11:00,
2013-05-30 01:16:00,75.4,70.7,30.08,East,90,0.4,3.4,85,0.00,,,0.00,WUHU216HW,2013-05-30 05:16:00,
2013-05-30 01:21:00,75.4,70.7,30.08,ESE,113,0.2,2.2,85,0.00,,,0.00,WUHU216HW,2013-05-30 05:21:00,
2013-05-30 01:26:00,75.6,71.2,30.08,ESE,113,2.5,4.0,86,0.00,,,0.00,WUHU216HW,2013-05-30 05:26:00,
2013-05-30 01:31:00,75.6,71.2,30.08,ENE,68,1.1,4.0,86,0.00,,,0.00,WUHU216HW,2013-05-30 05:31:00,
2013-05-30 01:36:00,75.4,70.7,30.08,East,90,0.2,4.0,85,0.00,,,0.00,WUHU216HW,2013-05-30 05:36:00,
2013-05-30 01:41:00,75.4,70.7,30.08,East,90,0.4,4.0,85,0.00,,,0.00,WUHU216HW,2013-05-30 05:41:00,
2013-05-30 01:46:00,75.4,71.0,30.08,ESE,113,2.0,4.0,86,0.00,,,0.00,WUHU216HW,2013-05-30 05:46:00,
2013-05-30 01:51:00,75.6,71.2,30.08,SE,135,2.9,4.0,86,0.00,,,0.00,WUHU216HW,2013-05-30 05:51:00,
2013-05-30 01:56:00,75.6,71.2,30.08,ENE,68,1.3,3.4,86,0.00,,,0.00,WUHU216HW,2013-05-30 05:56:00,
2013-05-30 02:01:00,75.6,71.2,30.07,ESE,113,1.8,3.4,86,0.00,,,0.00,WUHU216HW,2013-05-30 06:01:00,
2013-05-30 02:06:00,75.6,71.2,30.07,North,0,0.4,3.4,86,0.00,,,0.00,WUHU216HW,2013-05-30 06:06:00,
2013-05-30 02:11:00,75.8,71.4,30.07,SE,135,0.4,3.4,86,0.00,,,0.00,WUHU216HW,2013-05-30 06:11:00,
2013-05-30 02:16:00,75.8,71.0,30.07,ESE,113,2.5,3.4,85,0.00,,,0.00,WUHU216HW,2013-05-30 06:16:00,
2013-05-30 02:21:00,75.8,71.4,30.07,ESE,113,2.5,3.8,86,0.00,,,0.00,WUHU216HW,2013-05-30 06:21:00,
2013-05-30 02:26:00,75.6,70.8,30.07,ESE,113,1.8,3.8,85,0.00,,,0.00,WUHU216HW,2013-05-30 06:26:00,
2013-05-30 02:31:00,75.8,71.4,30.07,ESE,113,3.4,3.4,86,0.00,,,0.00,WUHU216HW,2013-05-30 06:31:00,
2013-05-30 02:36:00,75.8,71.4,30.06,ESE,113,2.2,3.4,86,0.00,,,0.00,WUHU216HW,2013-05-30 06:36:00,
2013-05-30 02:41:00,76.0,71.5,30.06,SE,135,1.8,2.7,86,0.00,,,0.00,WUHU216HW,2013-05-30 06:41:00,
2013-05-30 02:46:00,76.0,71.5,30.06,East,90,3.1,4.7,86,0.00,,,0.00,WUHU216HW,2013-05-30 06:46:00,
2013-05-30 02:51:00,75.8,71.4,30.06,ESE,113,1.8,4.7,86,0.00,,,0.00,WUHU216HW,2013-05-30 06:51:00,
2013-05-30 02:56:00,75.8,71.0,30.05,ESE,113,1.3,4.0,85,0.00,,,0.00,WUHU216HW,2013-05-30 06:56:00,
2013-05-30 03:01:00,76.0,71.5,30.05,ESE,113,2.7,4.5,86,0.00,,,0.00,WUHU216HW,2013-05-30 07:01:00,
2013-05-30 03:06:00,75.8,71.4,30.05,NE,45,0.4,4.7,86,0.00,,,0.00,WUHU216HW,2013-05-30 07:06:00,
2013-05-30 03:11:00,75.8,71.0,30.05,ESE,113,3.8,4.7,85,0.00,,,0.00,WUHU216HW,2013-05-30 07:11:00,
2013-05-30 03:16:00,75.8,71.0,30.06,NE,45,0.0,4.7,85,0.00,,,0.00,WUHU216HW,2013-05-30 07:16:00,
2013-05-30 03:21:00,75.8,71.0,30.05,SE,135,1.1,4.3,85,0.00,,,0.00,WUHU216HW,2013-05-30 07:21:00,
2013-05-30 03:26:00,75.8,71.0,30.05,ESE,113,5.4,5.4,85,0.00,,,0.00,WUHU216HW,2013-05-30 07:26:00,
2013-05-30 03:31:00,75.6,70.8,30.05,ESE,113,6.3,6.3,85,0.00,,,0.00,WUHU216HW,2013-05-30 07:31:00,
2013-05-30 03:36:00,75.6,70.8,30.06,East,90,2.5,6.3,85,0.00,,,0.00,WUHU216HW,2013-05-30 07:36:00,
2013-05-30 03:41:00,75.6,70.8,30.05,SE,135,4.7,6.3,85,0.00,,,0.00,WUHU216HW,2013-05-30 07:41:00,
2013-05-30 03:46:00,75.6,70.8,30.05,ESE,113,1.1,6.3,85,0.00,,,0.00,WUHU216HW,2013-05-30 07:46:00,
2013-05-30 03:51:00,75.6,70.8,30.05,SE,135,0.9,6.3,85,0.00,,,0.00,WUHU216HW,2013-05-30 07:51:00,
2013-05-30 03:56:00,75.4,70.7,30.05,SE,135,3.6,4.3,85,0.00,,,0.00,WUHU216HW,2013-05-30 07:56:00,
2013-05-30 04:01:00,75.4,70.7,30.05,ESE,113,1.6,4.3,85,0.00,,,0.00,WUHU216HW,2013-05-30 08:01:00,
2013-05-30 04:06:00,75.4,70.7,30.06,ESE,113,2.0,3.6,85,0.00,,,0.00,WUHU216HW,2013-05-30 08:06:00,
2013-05-30 04:11:00,75.4,70.7,30.06,ESE,113,0.4,4.0,85,0.00,,,0.00,WUHU216HW,2013-05-30 08:11:00,
2013-05-30 04:16:00,75.2,70.5,30.06,ESE,113,1.8,4.0,85,0.00,,,0.00,WUHU216HW,2013-05-30 08:16:00,
2013-05-30 04:21:00,75.2,70.5,30.06,ESE,113,1.6,3.4,85,0.00,,,0.00,WUHU216HW,2013-05-30 08:21:00,
2013-05-30 04:26:00,75.1,70.3,30.06,SE,135,1.6,3.4,85,0.00,,,0.00,WUHU216HW,2013-05-30 08:26:00,
2013-05-30 04:31:00,74.9,70.1,30.06,ESE,113,0.9,3.1,85,0.00,,,0.00,WUHU216HW,2013-05-30 08:31:00,
2013-05-30 04:36:00,75.1,70.3,30.06,ESE,113,1.3,3.1,85,0.00,,,0.00,WUHU216HW,2013-05-30 08:36:00,
2013-05-30 04:41:00,75.1,70.3,30.06,SE,135,1.8,3.8,85,0.00,,,0.00,WUHU216HW,2013-05-30 08:41:00,
2013-05-30 04:46:00,74.9,70.1,30.06,SE,135,2.2,3.8,85,0.00,,,0.00,WUHU216HW,2013-05-30 08:46:00,
2013-05-30 04:51:00,74.9,70.1,30.06,SE,135,1.8,2.2,85,0.00,,,0.00,WUHU216HW,2013-05-30 08:51:00,
2013-05-30 04:56:00,74.7,69.9,30.07,ESE,113,1.3,2.2,85,0.00,,,0.00,WUHU216HW,2013-05-30 08:56:00,
2013-05-30 05:01:00,74.7,70.7,30.07,East,90,0.9,1.8,87,0.00,,,0.00,WUHU216HW,2013-05-30 09:01:00,
2013-05-30 05:06:00,74.9,70.5,30.07,ESE,113,0.4,2.0,86,0.00,,,0.00,WUHU216HW,2013-05-30 09:06:00,
2013-05-30 05:11:00,74.7,69.9,30.07,ESE,113,0.4,2.0,85,0.00,,,0.00,WUHU216HW,2013-05-30 09:11:00,
2013-05-30 05:16:00,74.5,69.8,30.07,ESE,113,0.0,1.3,85,0.00,,,0.00,WUHU216HW,2013-05-30 09:16:00,
2013-05-30 05:21:00,74.5,69.8,30.07,ESE,113,1.3,3.1,85,0.00,,,0.00,WUHU216HW,2013-05-30 09:21:00,
2013-05-30 05:26:00,74.5,69.8,30.07,ENE,68,0.4,3.1,85,0.00,,,0.00,WUHU216HW,2013-05-30 09:26:00,
2013-05-30 05:31:00,74.2,69.4,30.08,SE,135,0.4,2.0,85,0.00,,,0.00,WUHU216HW,2013-05-30 09:31:00,
2013-05-30 05:36:00,74.2,69.4,30.08,SE,135,0.2,2.0,85,0.00,,,0.00,WUHU216HW,2013-05-30 09:36:00,
2013-05-30 05:41:00,74.0,69.2,30.08,SE,135,2.7,2.9,85,0.00,,,0.00,WUHU216HW,2013-05-30 09:41:00,
2013-05-30 05:46:00,74.2,69.4,30.08,ESE,113,1.1,2.9,85,0.00,,,0.00,WUHU216HW,2013-05-30 09:46:00,
2013-05-30 05:51:00,74.2,69.8,30.08,SE,135,0.4,2.7,86,0.00,,,0.00,WUHU216HW,2013-05-30 09:51:00,
2013-05-30 05:56:00,74.2,69.4,30.08,ESE,113,0.0,1.8,85,0.00,,,0.00,WUHU216HW,2013-05-30 09:56:00,
2013-05-30 06:01:00,74.2,69.8,30.08,ESE,113,2.5,2.9,86,0.00,,,0.00,WUHU216HW,2013-05-30 10:01:00,
2013-05-30 06:06:00,74.2,69.8,30.08,SE,135,2.7,2.9,86,0.00,,,0.00,WUHU216HW,2013-05-30 10:06:00,
2013-05-30 06:11:00,74.3,69.9,30.08,ESE,113,0.7,2.9,86,0.00,,,0.00,WUHU216HW,2013-05-30 10:11:00,
2013-05-30 06:16:00,74.2,69.8,30.09,SE,135,1.3,2.9,86,0.00,,,0.00,WUHU216HW,2013-05-30 10:16:00,
2013-05-30 06:21:00,74.3,69.6,30.09,ESE,113,1.1,2.5,85,0.00,,,0.00,WUHU216HW,2013-05-30 10:21:00,
2013-05-30 06:26:00,74.3,69.9,30.09,SE,135,1.1,1.8,86,0.00,,,0.00,WUHU216HW,2013-05-30 10:26:00,
2013-05-30 06:31:00,74.5,70.1,30.09,ESE,113,2.5,2.5,86,0.00,,,0.00,WUHU216HW,2013-05-30 10:31:00,
2013-05-30 06:36:00,74.5,70.1,30.10,SE,135,1.3,2.5,86,0.00,,,0.00,WUHU216HW,2013-05-30 10:36:00,
2013-05-30 06:41:00,74.5,70.1,30.10,SE,135,1.1,2.5,86,0.00,,,0.00,WUHU216HW,2013-05-30 10:41:00,
2013-05-30 06:46:00,74.5,70.1,30.10,ESE,113,2.5,2.9,86,0.00,,,0.00,WUHU216HW,2013-05-30 10:46:00,
2013-05-30 06:51:00,74.5,70.1,30.10,ESE,113,1.6,2.9,86,0.00,,,0.00,WUHU216HW,2013-05-30 10:51:00,
2013-05-30 06:56:00,74.7,70.3,30.10,ESE,113,0.9,2.9,86,0.00,,,0.00,WUHU216HW,2013-05-30 10:56:00,
2013-05-30 07:01:00,74.7,70.3,30.10,ESE,113,0.4,2.9,86,0.00,,,0.00,WUHU216HW,2013-05-30 11:01:00,
2013-05-30 07:06:00,75.1,71.0,30.10,SE,135,1.6,2.5,87,0.00,,,0.00,WUHU216HW,2013-05-30 11:06:00,
2013-05-30 07:11:00,75.2,71.2,30.10,NE,45,0.9,3.1,87,0.00,,,0.00,WUHU216HW,2013-05-30 11:11:00,
2013-05-30 07:16:00,75.4,71.4,30.10,East,90,2.5,3.4,87,0.00,,,0.00,WUHU216HW,2013-05-30 11:16:00,
2013-05-30 07:21:00,75.6,71.2,30.11,ESE,113,4.0,4.0,86,0.00,,,0.00,WUHU216HW,2013-05-30 11:21:00,
2013-05-30 07:26:00,75.6,70.8,30.10,ESE,113,2.2,4.0,85,0.00,,,0.00,WUHU216HW,2013-05-30 11:26:00,
2013-05-30 07:31:00,76.0,71.5,30.11,NW,315,0.4,4.0,86,0.00,,,0.00,WUHU216HW,2013-05-30 11:31:00,
2013-05-30 07:36:00,76.1,71.3,30.11,SE,135,2.5,4.3,85,0.00,,,0.00,WUHU216HW,2013-05-30 11:36:00,
2013-05-30 07:41:00,76.3,71.5,30.11,ENE,68,0.4,6.7,85,0.00,,,0.00,WUHU216HW,2013-05-30 11:41:00,
2013-05-30 07:46:00,76.5,71.6,30.12,SE,135,4.3,6.7,85,0.00,,,0.00,WUHU216HW,2013-05-30 11:46:00,
2013-05-30 07:51:00,76.7,71.8,30.12,ESE,113,5.6,6.0,85,0.00,,,0.00,WUHU216HW,2013-05-30 11:51:00,
2013-05-30 07:56:00,77.6,72.0,30.12,SE,135,4.0,6.0,83,0.00,,,0.00,WUHU216HW,2013-05-30 11:56:00,
2013-05-30 08:01:00,78.3,72.0,30.12,East,90,1.6,8.3,81,0.00,,,0.00,WUHU216HW,2013-05-30 12:01:00,
2013-05-30 08:06:00,79.2,72.9,30.12,ESE,113,7.6,8.3,81,0.00,,,0.00,WUHU216HW,2013-05-30 12:06:00,
2013-05-30 08:11:00,79.9,72.9,30.12,SE,135,5.4,7.6,79,0.00,,,0.00,WUHU216HW,2013-05-30 12:11:00,
2013-05-30 08:16:00,80.3,72.5,30.13,ENE,68,1.6,7.6,77,0.00,,,0.00,WUHU216HW,2013-05-30 12:16:00,
2013-05-30 08:21:00,80.6,72.8,30.13,SE,135,5.1,5.8,77,0.00,,,0.00,WUHU216HW,2013-05-30 12:21:00,
2013-05-30 08:26:00,81.2,73.4,30.13,SE,135,4.9,5.8,77,0.00,,,0.00,WUHU216HW,2013-05-30 12:26:00,
2013-05-30 08:31:00,81.7,74.3,30.13,SE,135,2.0,7.4,78,0.00,,,0.00,WUHU216HW,2013-05-30 12:31:00,
2013-05-30 08:36:00,81.9,73.6,30.13,SE,135,3.4,7.4,76,0.00,,,0.00,WUHU216HW,2013-05-30 12:36:00,
2013-05-30 08:41:00,82.4,73.3,30.13,East,90,1.3,6.3,74,0.00,,,0.00,WUHU216HW,2013-05-30 12:41:00,
2013-05-30 08:46:00,82.6,73.9,30.13,ESE,113,4.7,6.3,75,0.00,,,0.00,WUHU216HW,2013-05-30 12:46:00,
2013-05-30 08:51:00,83.0,73.5,30.13,SE,135,2.5,7.2,73,0.00,,,0.00,WUHU216HW,2013-05-30 12:51:00,
2013-05-30 08:56:00,83.5,73.5,30.13,NNW,338,1.8,7.2,72,0.00,,,0.00,WUHU216HW,2013-05-30 12:56:00,
2013-05-30 09:01:00,83.9,73.4,30.13,West,270,1.1,7.2,71,0.00,,,0.00,WUHU216HW,2013-05-30 13:01:00,
2013-05-30 09:06:00,83.9,73.4,30.13,SE,135,8.3,9.2,71,0.00,,,0.00,WUHU216HW,2013-05-30 13:06:00,
2013-05-30 09:11:00,84.6,73.8,30.13,SE,135,4.5,9.2,70,0.00,,,0.00,WUHU216HW,2013-05-30 13:11:00,
2013-05-30 09:16:00,85.0,74.2,30.13,ESE,113,1.8,8.3,70,0.00,,,0.00,WUHU216HW,2013-05-30 13:16:00,
2013-05-30 09:21:00,85.5,74.3,30.13,SE,135,6.7,6.7,69,0.00,,,0.00,WUHU216HW,2013-05-30 13:21:00,
2013-05-30 09:26:00,85.9,73.6,30.13,SE,135,2.9,7.2,67,0.00,,,0.00,WUHU216HW,2013-05-30 13:26:00,
2013-05-30 09:31:00,84.8,73.1,30.13,ESE,113,3.8,7.2,68,0.00,,,0.00,WUHU216HW,2013-05-30 13:31:00,
2013-05-30 09:36:00,85.3,73.6,30.13,East,90,2.9,7.2,68,0.00,,,0.00,WUHU216HW,2013-05-30 13:36:00,
2013-05-30 09:41:00,86.4,74.6,30.13,SE,135,6.7,9.2,68,0.00,,,0.00,WUHU216HW,2013-05-30 13:41:00,
2013-05-30 09:46:00,87.1,73.9,30.13,East,90,5.1,9.4,65,0.00,,,0.00,WUHU216HW,2013-05-30 13:46:00,
2013-05-30 09:51:00,86.2,74.0,30.13,SE,135,6.5,9.8,67,0.00,,,0.00,WUHU216HW,2013-05-30 13:51:00,
2013-05-30 09:56:00,87.5,75.2,30.13,ESE,113,6.3,9.8,67,0.00,,,0.00,WUHU216HW,2013-05-30 13:56:00,
2013-05-30 10:01:00,86.8,73.1,30.13,ESE,113,5.8,9.2,64,0.00,,,0.00,WUHU216HW,2013-05-30 14:01:00,
2013-05-30 10:06:00,86.8,73.6,30.13,ESE,113,1.8,9.4,65,0.00,,,0.00,WUHU216HW,2013-05-30 14:06:00,
2013-05-30 10:11:00,86.6,73.5,30.13,SE,135,1.8,9.4,65,0.00,,,0.00,WUHU216HW,2013-05-30 14:11:00,
2013-05-30 10:16:00,85.5,73.4,30.13,SSE,158,1.3,5.1,67,0.00,,,0.00,WUHU216HW,2013-05-30 14:16:00,
2013-05-30 10:21:00,85.3,73.2,30.13,ESE,113,1.1,4.7,67,0.00,,,0.00,WUHU216HW,2013-05-30 14:21:00,
2013-05-30 10:26:00,85.3,73.2,30.13,East,90,5.1,5.8,67,0.00,,,0.00,WUHU216HW,2013-05-30 14:26:00,
2013-05-30 10:31:00,85.7,74.0,30.13,SE,135,5.4,6.5,68,0.00,,,0.00,WUHU216HW,2013-05-30 14:31:00,
2013-05-30 10:36:00,84.6,72.5,30.13,South,180,2.2,6.5,67,0.00,,,0.00,WUHU216HW,2013-05-30 14:36:00,
2013-05-30 10:41:00,84.6,73.4,30.13,NE,45,2.5,8.1,69,0.00,,,0.00,WUHU216HW,2013-05-30 14:41:00,
2013-05-30 10:46:00,84.6,73.8,30.13,SSE,158,1.6,8.1,70,0.00,,,0.00,WUHU216HW,2013-05-30 14:46:00,
2013-05-30 10:51:00,85.5,73.4,30.13,ESE,113,3.8,5.6,67,0.00,,,0.00,WUHU216HW,2013-05-30 14:51:00,
2013-05-30 10:56:00,85.5,73.4,30.12,NNE,23,4.5,5.4,67,0.00,,,0.00,WUHU216HW,2013-05-30 14:56:00,
2013-05-30 11:01:00,86.2,75.0,30.12,East,90,5.4,8.9,69,0.00,,,0.00,WUHU216HW,2013-05-30 15:01:00,
2013-05-30 11:06:00,86.9,73.3,30.12,North,0,0.7,8.9,64,0.00,,,0.00,WUHU216HW,2013-05-30 15:06:00,
2013-05-30 11:11:00,86.2,73.1,30.12,SE,135,1.3,8.5,65,0.00,,,0.00,WUHU216HW,2013-05-30 15:11:00,
2013-05-30 11:16:00,85.9,73.6,30.12,ESE,113,4.7,8.5,67,0.00,,,0.00,WUHU216HW,2013-05-30 15:16:00,
2013-05-30 11:21:00,86.8,74.5,30.12,ESE,113,6.9,7.6,67,0.00,,,0.00,WUHU216HW,2013-05-30 15:21:00,
2013-05-30 11:26:00,87.7,73.5,30.12,NNE,23,0.9,7.6,63,0.00,,,0.00,WUHU216HW,2013-05-30 15:26:00,
2013-05-30 11:31:00,87.8,74.2,30.12,SE,135,8.5,8.5,64,0.00,,,0.00,WUHU216HW,2013-05-30 15:31:00,
2013-05-30 11:36:00,87.8,74.6,30.12,NNE,23,1.3,10.5,65,0.00,,,0.00,WUHU216HW,2013-05-30 15:36:00,
2013-05-30 11:41:00,88.2,74.1,30.12,NE,45,4.9,10.5,63,0.00,,,0.00,WUHU216HW,2013-05-30 15:41:00,
2013-05-30 11:46:00,88.4,75.2,30.12,ESE,113,8.5,11.4,65,0.00,,,0.00,WUHU216HW,2013-05-30 15:46:00,
2013-05-30 11:51:00,87.5,73.8,30.12,SE,135,4.9,11.6,64,0.00,,,0.00,WUHU216HW,2013-05-30 15:51:00,
2013-05-30 11:56:00,87.1,74.3,30.11,SE,135,11.9,11.9,66,0.00,,,0.00,WUHU216HW,2013-05-30 15:56:00,
2013-05-30 12:01:00,87.1,74.3,30.11,ESE,113,7.2,12.1,66,0.00,,,0.00,WUHU216HW,2013-05-30 16:01:00,
2013-05-30 12:06:00,86.4,73.3,30.12,SE,135,11.2,12.1,65,0.00,,,0.00,WUHU216HW,2013-05-30 16:06:00,
2013-05-30 12:11:00,86.9,73.3,30.11,East,90,3.4,11.2,64,0.00,,,0.00,WUHU216HW,2013-05-30 16:11:00,
2013-05-30 12:16:00,87.1,74.9,30.11,SSE,158,7.6,12.1,67,0.00,,,0.00,WUHU216HW,2013-05-30 16:16:00,
2013-05-30 12:21:00,87.1,73.4,30.12,SE,135,1.3,12.1,64,0.00,,,0.00,WUHU216HW,2013-05-30 16:21:00,
2013-05-30 12:26:00,86.2,73.5,30.12,SE,135,8.9,11.2,66,0.00,,,0.00,WUHU216HW,2013-05-30 16:26:00,
2013-05-30 12:31:00,86.2,74.0,30.11,SE,135,8.7,10.1,67,0.00,,,0.00,WUHU216HW,2013-05-30 16:31:00,
2013-05-30 12:36:00,86.4,73.3,30.11,SSW,203,3.6,10.1,65,0.00,,,0.00,WUHU216HW,2013-05-30 16:36:00,
2013-05-30 12:41:00,86.8,73.6,30.11,SE,135,8.5,9.4,65,0.00,,,0.00,WUHU216HW,2013-05-30 16:41:00,
2013-05-30 12:46:00,86.4,73.3,30.11,West,270,2.5,9.2,65,0.00,,,0.00,WUHU216HW,2013-05-30 16:46:00,
2013-05-30 12:51:00,86.6,73.9,30.11,SSE,158,7.6,8.5,66,0.00,,,0.00,WUHU216HW,2013-05-30 16:51:00,
2013-05-30 12:56:00,86.8,74.5,30.11,SE,135,13.0,13.0,67,0.00,,,0.00,WUHU216HW,2013-05-30 16:56:00,
2013-05-30 13:01:00,87.7,74.9,30.11,SE,135,2.5,13.0,66,0.00,,,0.00,WUHU216HW,2013-05-30 17:01:00,
2013-05-30 13:06:00,88.0,74.8,30.11,SE,135,10.5,13.0,65,0.00,,,0.00,WUHU216HW,2013-05-30 17:06:00,
2013-05-30 13:11:00,87.3,73.2,30.11,SE,135,2.5,10.5,63,0.00,,,0.00,WUHU216HW,2013-05-30 17:11:00,
2013-05-30 13:16:00,86.0,72.9,30.11,SW,225,2.9,10.5,65,0.00,,,0.00,WUHU216HW,2013-05-30 17:16:00,
2013-05-30 13:21:00,85.3,72.7,30.11,West,270,1.8,6.5,66,0.00,,,0.00,WUHU216HW,2013-05-30 17:21:00,
2013-05-30 13:26:00,86.2,75.0,30.10,SE,135,8.5,13.6,69,0.00,,,0.00,WUHU216HW,2013-05-30 17:26:00,
2013-05-30 13:31:00,87.3,75.0,30.11,ESE,113,6.3,13.6,67,0.00,,,0.00,WUHU216HW,2013-05-30 17:31:00,
2013-05-30 13:36:00,87.1,73.0,30.11,East,90,1.8,11.4,63,0.00,,,0.00,WUHU216HW,2013-05-30 17:36:00,
2013-05-30 13:41:00,86.8,74.5,30.11,ESE,113,2.0,11.4,67,0.00,,,0.00,WUHU216HW,2013-05-30 17:41:00,
2013-05-30 13:46:00,87.5,73.8,30.10,SE,135,4.0,9.2,64,0.00,,,0.00,WUHU216HW,2013-05-30 17:46:00,
2013-05-30 13:51:00,86.4,73.7,30.11,ESE,113,4.5,11.9,66,0.00,,,0.00,WUHU216HW,2013-05-30 17:51:00,
2013-05-30 13:56:00,85.9,72.7,30.11,ESE,113,2.7,11.9,65,0.00,,,0.00,WUHU216HW,2013-05-30 17:56:00,
2013-05-30 14:01:00,85.7,73.5,30.10,ESE,113,4.9,7.8,67,0.00,,,0.00,WUHU216HW,2013-05-30 18:01:00,
2013-05-30 14:06:00,85.7,74.0,30.10,SE,135,7.8,7.8,68,0.00,,,0.00,WUHU216HW,2013-05-30 18:06:00,
2013-05-30 14:11:00,86.0,74.4,30.10,SE,135,6.3,7.8,68,0.00,,,0.00,WUHU216HW,2013-05-30 18:11:00,
2013-05-30 14:17:00,86.2,74.0,30.10,NNE,23,5.8,11.4,67,0.00,,,0.00,WUHU216HW,2013-05-30 18:17:00,
2013-05-30 14:22:00,85.7,73.5,30.10,ESE,113,6.9,11.4,67,0.00,,,0.00,WUHU216HW,2013-05-30 18:22:00,
2013-05-30 14:26:00,85.5,73.4,30.10,ESE,113,2.7,9.4,67,0.00,,,0.00,WUHU216HW,2013-05-30 18:26:00,
2013-05-30 14:32:00,85.3,74.1,30.10,ESE,113,2.5,7.6,69,0.00,,,0.00,WUHU216HW,2013-05-30 18:32:00,
2013-05-30 14:37:00,86.0,74.8,30.10,ESE,113,5.4,6.7,69,0.00,,,0.00,WUHU216HW,2013-05-30 18:37:00,
2013-05-30 14:42:00,85.1,73.0,30.10,ESE,113,3.4,6.7,67,0.00,,,0.00,WUHU216HW,2013-05-30 18:42:00,
2013-05-30 14:46:00,84.6,72.9,30.10,SE,135,1.3,6.7,68,0.00,,,0.00,WUHU216HW,2013-05-30 18:46:00,
2013-05-30 14:52:00,84.8,74.0,30.10,SE,135,8.7,10.7,70,0.00,,,0.00,WUHU216HW,2013-05-30 18:52:00,
2013-05-30 14:56:00,85.3,74.5,30.10,ESE,113,1.8,10.7,70,0.00,,,0.00,WUHU216HW,2013-05-30 18:56:00,
2013-05-30 15:02:00,85.3,73.6,30.10,East,90,5.4,9.4,68,0.00,,,0.00,WUHU216HW,2013-05-30 19:02:00,
2013-05-30 15:07:00,85.1,73.9,30.09,East,90,4.5,6.7,69,0.00,,,0.00,WUHU216HW,2013-05-30 19:07:00,
2013-05-30 15:12:00,85.1,73.9,30.09,NE,45,3.4,7.4,69,0.00,,,0.00,WUHU216HW,2013-05-30 19:12:00,
2013-05-30 15:17:00,85.1,73.5,30.09,SE,135,6.9,9.6,68,0.00,,,0.00,WUHU216HW,2013-05-30 19:17:00,
2013-05-30 15:22:00,85.0,73.7,30.09,SE,135,6.3,9.6,69,0.00,,,0.00,WUHU216HW,2013-05-30 19:22:00,
2013-05-30 15:27:00,85.1,73.9,30.09,ESE,113,2.7,6.9,69,0.00,,,0.00,WUHU216HW,2013-05-30 19:27:00,
2013-05-30 15:32:00,84.8,74.0,30.08,East,90,8.1,12.5,70,0.00,,,0.00,WUHU216HW,2013-05-30 19:32:00,
2013-05-30 15:37:00,85.0,74.5,30.08,ESE,113,9.4,12.5,71,0.00,,,0.00,WUHU216HW,2013-05-30 19:37:00,
2013-05-30 15:42:00,85.3,73.6,30.08,ENE,68,6.3,9.4,68,0.00,,,0.00,WUHU216HW,2013-05-30 19:42:00,
2013-05-30 15:47:00,85.3,74.5,30.08,ESE,113,2.5,9.4,70,0.00,,,0.00,WUHU216HW,2013-05-30 19:47:00,
2013-05-30 15:52:00,85.5,74.3,30.08,SE,135,6.0,6.5,69,0.00,,,0.00,WUHU216HW,2013-05-30 19:52:00,
2013-05-30 15:57:00,85.3,74.1,30.08,ENE,68,3.4,6.3,69,0.00,,,0.00,WUHU216HW,2013-05-30 19:57:00,
2013-05-30 16:02:00,85.0,74.5,30.07,ENE,68,8.5,8.7,71,0.00,,,0.00,WUHU216HW,2013-05-30 20:02:00,
2013-05-30 16:07:00,83.5,72.3,30.08,ESE,113,5.4,8.7,69,0.00,,,0.00,WUHU216HW,2013-05-30 20:07:00,
2013-05-30 16:12:00,83.0,73.0,30.08,ESE,113,2.7,8.3,72,0.00,,,0.00,WUHU216HW,2013-05-30 20:12:00,
2013-05-30 16:17:00,82.3,72.7,30.08,SE,135,1.8,8.3,73,0.00,,,0.00,WUHU216HW,2013-05-30 20:17:00,
2013-05-30 16:22:00,81.7,72.6,30.07,NE,45,1.8,4.9,74,0.00,,,0.00,WUHU216HW,2013-05-30 20:22:00,
2013-05-30 16:27:00,81.4,72.7,30.07,SSE,158,4.3,4.7,75,0.00,,,0.00,WUHU216HW,2013-05-30 20:27:00,
2013-05-30 16:32:00,81.0,72.4,30.07,ESE,113,3.4,4.3,75,0.00,,,0.00,WUHU216HW,2013-05-30 20:32:00,
2013-05-30 16:37:00,81.2,72.9,30.07,SE,135,1.1,5.8,76,0.00,,,0.00,WUHU216HW,2013-05-30 20:37:00,
2013-05-30 16:42:00,81.9,73.6,30.07,ESE,113,3.8,9.8,76,0.00,,,0.00,WUHU216HW,2013-05-30 20:42:00,
2013-05-30 16:47:00,82.1,73.4,30.07,NE,45,0.9,9.8,75,0.00,,,0.00,WUHU216HW,2013-05-30 20:47:00,
2013-05-30 16:52:00,81.7,73.0,30.07,East,90,6.5,7.2,75,0.00,,,0.00,WUHU216HW,2013-05-30 20:52:00,
2013-05-30 16:57:00,81.7,73.0,30.06,SE,135,2.9,6.9,75,0.00,,,0.00,WUHU216HW,2013-05-30 20:57:00,
2013-05-30 17:02:00,82.4,73.3,30.06,ENE,68,2.5,7.2,74,0.00,,,0.00,WUHU216HW,2013-05-30 21:02:00,
2013-05-30 17:07:00,82.3,73.5,30.06,SE,135,5.1,9.2,75,0.00,,,0.00,WUHU216HW,2013-05-30 21:07:00,
2013-05-30 17:12:00,82.1,73.4,30.06,South,180,0.4,9.2,75,0.00,,,0.00,WUHU216HW,2013-05-30 21:12:00,
2013-05-30 17:17:00,82.6,74.3,30.06,ESE,113,5.1,6.5,76,0.00,,,0.00,WUHU216HW,2013-05-30 21:17:00,
2013-05-30 17:22:00,83.0,73.8,30.06,SW,225,3.1,7.8,74,0.00,,,0.00,WUHU216HW,2013-05-30 21:22:00,
2013-05-30 17:27:00,82.6,73.9,30.06,SSE,158,7.8,10.1,75,0.00,,,0.00,WUHU216HW,2013-05-30 21:27:00,
2013-05-30 17:32:00,82.8,74.1,30.06,SE,135,3.8,10.1,75,0.00,,,0.00,WUHU216HW,2013-05-30 21:32:00,
2013-05-30 17:37:00,82.6,73.4,30.06,ESE,113,2.5,10.5,74,0.00,,,0.00,WUHU216HW,2013-05-30 21:37:00,
2013-05-30 17:42:00,82.3,73.2,30.06,ESE,113,1.8,10.5,74,0.00,,,0.00,WUHU216HW,2013-05-30 21:42:00,
2013-05-30 17:47:00,82.1,73.4,30.06,SSE,158,5.4,7.6,75,0.00,,,0.00,WUHU216HW,2013-05-30 21:47:00,
2013-05-30 17:52:00,82.3,73.5,30.06,SE,135,4.5,8.5,75,0.00,,,0.00,WUHU216HW,2013-05-30 21:52:00,
2013-05-30 17:57:00,82.4,73.3,30.06,NE,45,1.1,8.5,74,0.00,,,0.00,WUHU216HW,2013-05-30 21:57:00,
2013-05-30 18:02:00,82.1,73.0,30.06,SE,135,3.1,8.3,74,0.00,,,0.00,WUHU216HW,2013-05-30 22:02:00,
2013-05-30 18:07:00,81.7,73.0,30.06,East,90,2.7,5.8,75,0.00,,,0.00,WUHU216HW,2013-05-30 22:07:00,
2013-05-30 18:12:00,81.5,72.8,30.06,SE,135,4.3,5.8,75,0.00,,,0.00,WUHU216HW,2013-05-30 22:12:00,
2013-05-30 18:17:00,81.4,72.7,30.06,SE,135,1.6,6.3,75,0.00,,,0.00,WUHU216HW,2013-05-30 22:17:00,
2013-05-30 18:22:00,81.5,72.8,30.06,SE,135,4.3,6.3,75,0.00,,,0.00,WUHU216HW,2013-05-30 22:22:00,
2013-05-30 18:27:00,81.5,72.8,30.05,SE,135,5.4,6.9,75,0.00,,,0.00,WUHU216HW,2013-05-30 22:27:00,
2013-05-30 18:32:00,81.5,72.8,30.05,ESE,113,6.9,6.9,75,0.00,,,0.00,WUHU216HW,2013-05-30 22:32:00,
2013-05-30 18:37:00,81.2,72.6,30.05,SE,135,3.8,6.9,75,0.00,,,0.00,WUHU216HW,2013-05-30 22:37:00,
2013-05-30 18:42:00,81.2,72.6,30.05,SE,135,2.2,6.5,75,0.00,,,0.00,WUHU216HW,2013-05-30 22:42:00,
2013-05-30 18:47:00,81.2,72.9,30.05,SE,135,3.8,6.5,76,0.00,,,0.00,WUHU216HW,2013-05-30 22:47:00,
2013-05-30 18:52:00,81.0,72.7,30.05,SE,135,7.2,7.2,76,0.00,,,0.00,WUHU216HW,2013-05-30 22:52:00,
2013-05-30 18:57:00,80.8,72.5,30.06,East,90,4.7,7.2,76,0.00,,,0.00,WUHU216HW,2013-05-30 22:57:00,
2013-05-30 19:02:00,80.6,72.4,30.06,SE,135,4.7,7.2,76,0.00,,,0.00,WUHU216HW,2013-05-30 23:02:00,
2013-05-30 19:07:00,80.5,72.2,30.06,ENE,68,4.7,8.5,76,0.00,,,0.00,WUHU216HW,2013-05-30 23:07:00,
2013-05-30 19:12:00,80.3,72.0,30.06,SE,135,4.0,8.5,76,0.00,,,0.00,WUHU216HW,2013-05-30 23:12:00,
2013-05-30 19:17:00,80.1,72.3,30.06,ENE,68,4.5,6.5,77,0.00,,,0.00,WUHU216HW,2013-05-30 23:17:00,
2013-05-30 19:22:00,80.1,72.3,30.06,SE,135,3.6,5.6,77,0.00,,,0.00,WUHU216HW,2013-05-30 23:22:00,
2013-05-30 19:27:00,79.9,72.1,30.06,ESE,113,1.1,5.6,77,0.00,,,0.00,WUHU216HW,2013-05-30 23:27:00,
2013-05-30 19:32:00,79.9,72.5,30.07,ESE,113,1.1,6.3,78,0.00,,,0.00,WUHU216HW,2013-05-30 23:32:00,
2013-05-30 19:37:00,79.7,71.9,30.06,SE,135,4.5,6.3,77,0.00,,,0.00,WUHU216HW,2013-05-30 23:37:00,
2013-05-30 19:42:00,79.6,72.1,30.07,ESE,113,2.0,5.1,78,0.00,,,0.00,WUHU216HW,2013-05-30 23:42:00,
2013-05-30 19:47:00,79.2,72.2,30.06,ESE,113,1.3,6.3,79,0.00,,,0.00,WUHU216HW,2013-05-30 23:47:00,
2013-05-30 19:52:00,79.0,72.0,30.06,NNE,23,1.3,6.3,79,0.00,,,0.00,WUHU216HW,2013-05-30 23:52:00,
2013-05-30 19:57:00,78.8,71.8,30.07,ESE,113,3.4,5.1,79,0.00,,,0.00,WUHU216HW,2013-05-30 23:57:00,
2013-05-30 20:02:00,78.8,72.2,30.07,ESE,113,1.1,4.7,80,0.00,,,0.00,WUHU216HW,2013-05-31 00:02:00,
2013-05-30 20:07:00,78.8,72.2,30.07,East,90,0.2,4.7,80,0.00,,,0.00,WUHU216HW,2013-05-31 00:07:00,
2013-05-30 20:12:00,78.5,71.8,30.07,ESE,113,2.2,3.1,80,0.00,,,0.00,WUHU216HW,2013-05-31 00:12:00,
2013-05-30 20:17:00,78.3,71.6,30.07,ESE,113,1.8,3.4,80,0.00,,,0.00,WUHU216HW,2013-05-31 00:17:00,
2013-05-30 20:22:00,78.3,71.6,30.07,SE,135,1.8,3.6,80,0.00,,,0.00,WUHU216HW,2013-05-31 00:22:00,
2013-05-30 20:27:00,78.1,71.8,30.07,SE,135,3.6,6.0,81,0.00,,,0.00,WUHU216HW,2013-05-31 00:27:00,
2013-05-30 20:32:00,77.9,71.6,30.07,SE,135,2.5,6.0,81,0.00,,,0.00,WUHU216HW,2013-05-31 00:32:00,
2013-05-30 20:37:00,77.8,71.5,30.07,SE,135,1.1,10.7,81,0.02,,,0.02,WUHU216HW,2013-05-31 00:37:00,
2013-05-30 20:42:00,77.2,70.9,30.07,SE,135,6.3,10.7,81,0.07,,,0.07,WUHU216HW,2013-05-31 00:42:00,
2013-05-30 20:47:00,76.5,70.9,30.08,SSE,158,0.9,8.5,83,0.11,,,0.11,WUHU216HW,2013-05-31 00:47:00,
2013-05-30 20:52:00,76.1,71.0,30.07,SE,135,1.1,6.3,84,0.11,,,0.11,WUHU216HW,2013-05-31 00:52:00,
2013-05-30 20:57:00,76.0,71.2,30.07,East,90,0.4,4.7,85,0.11,,,0.11,WUHU216HW,2013-05-31 00:57:00,
2013-05-30 21:02:00,75.8,71.0,30.07,East,90,1.1,2.5,85,0.11,,,0.11,WUHU216HW,2013-05-31 01:02:00,
2013-05-30 21:07:00,75.8,70.7,30.08,ESE,113,0.7,1.8,84,0.11,,,0.11,WUHU216HW,2013-05-31 01:07:00,
2013-05-30 21:12:00,75.6,70.8,30.08,ESE,113,0.0,1.3,85,0.12,,,0.12,WUHU216HW,2013-05-31 01:12:00,
2013-05-30 21:17:00,75.6,70.8,30.08,ESE,113,1.1,1.8,85,0.12,,,0.12,WUHU216HW,2013-05-31 01:17:00,
2013-05-30 21:22:00,75.6,70.8,30.08,ESE,113,0.7,1.8,85,0.12,,,0.12,WUHU216HW,2013-05-31 01:22:00,
2013-05-30 21:27:00,75.8,71.0,30.08,ESE,113,1.1,1.8,85,0.12,,,0.12,WUHU216HW,2013-05-31 01:27:00,
2013-05-30 21:32:00,75.6,71.5,30.08,ESE,113,0.2,1.6,87,0.12,,,0.12,WUHU216HW,2013-05-31 01:32:00,
2013-05-30 21:37:00,75.6,71.5,30.08,SE,135,1.1,1.8,87,0.08,,,0.12,WUHU216HW,2013-05-31 01:37:00,
2013-05-30 21:42:00,75.6,71.5,30.08,SE,135,1.6,3.6,87,0.04,,,0.12,WUHU216HW,2013-05-31 01:42:00,
2013-05-30 21:47:00,75.6,71.5,30.08,ESE,113,3.6,3.6,87,0.01,,,0.12,WUHU216HW,2013-05-31 01:47:00,
2013-05-30 21:52:00,75.6,71.5,30.08,SE,135,1.8,3.6,87,0.01,,,0.12,WUHU216HW,2013-05-31 01:52:00,
2013-05-30 21:57:00,75.6,71.5,30.09,SE,135,1.1,3.6,87,0.01,,,0.12,WUHU216HW,2013-05-31 01:57:00,
2013-05-30 22:02:00,75.4,71.4,30.09,SE,135,0.4,2.5,87,0.01,,,0.12,WUHU216HW,2013-05-31 02:02:00,
2013-05-30 22:07:00,75.2,71.2,30.09,ESE,113,1.1,3.4,87,0.01,,,0.12,WUHU216HW,2013-05-31 02:07:00,
2013-05-30 22:12:00,75.2,71.2,30.09,NNE,23,1.1,3.4,87,0.00,,,0.12,WUHU216HW,2013-05-31 02:12:00,
2013-05-30 22:17:00,75.2,71.2,30.09,ESE,113,1.3,2.9,87,0.00,,,0.12,WUHU216HW,2013-05-31 02:17:00,
2013-05-30 22:22:00,75.2,71.2,30.09,East,90,0.4,1.8,87,0.00,,,0.12,WUHU216HW,2013-05-31 02:22:00,
2013-05-30 22:27:00,75.2,71.2,30.09,ESE,113,1.1,2.0,87,0.00,,,0.12,WUHU216HW,2013-05-31 02:27:00,
2013-05-30 22:32:00,75.1,71.0,30.09,ENE,68,1.8,3.1,87,0.00,,,0.12,WUHU216HW,2013-05-31 02:32:00,
2013-05-30 22:37:00,75.1,71.0,30.10,ESE,113,1.3,3.8,87,0.00,,,0.12,WUHU216HW,2013-05-31 02:37:00,
2013-05-30 22:42:00,75.1,71.0,30.10,ESE,113,1.8,3.8,87,0.00,,,0.12,WUHU216HW,2013-05-31 02:42:00,
2013-05-30 22:47:00,75.1,71.0,30.10,ESE,113,1.3,2.7,87,0.00,,,0.12,WUHU216HW,2013-05-31 02:47:00,
2013-05-30 22:52:00,75.1,71.0,30.10,ESE,113,1.1,2.7,87,0.00,,,0.12,WUHU216HW,2013-05-31 02:52:00,
2013-05-30 22:57:00,75.1,71.3,30.10,East,90,1.1,3.6,88,0.00,,,0.12,WUHU216HW,2013-05-31 02:57:00,
2013-05-30 23:02:00,75.1,71.3,30.10,ESE,113,2.7,3.6,88,0.00,,,0.12,WUHU216HW,2013-05-31 03:02:00,
2013-05-30 23:07:00,74.9,70.8,30.10,SE,135,1.8,3.1,87,0.00,,,0.12,WUHU216HW,2013-05-31 03:07:00,
2013-05-30 23:12:00,74.9,70.8,30.10,SE,135,2.5,3.6,87,0.00,,,0.12,WUHU216HW,2013-05-31 03:12:00,
2013-05-30 23:17:00,74.7,70.7,30.10,ESE,113,1.8,3.6,87,0.00,,,0.12,WUHU216HW,2013-05-31 03:17:00,
2013-05-30 23:22:00,74.7,70.7,30.10,ESE,113,0.4,2.9,87,0.00,,,0.12,WUHU216HW,2013-05-31 03:22:00,
2013-05-30 23:27:00,74.5,70.5,30.10,ESE,113,0.0,1.8,87,0.00,,,0.12,WUHU216HW,2013-05-31 03:27:00,
2013-05-30 23:32:00,74.5,70.5,30.10,ESE,113,0.4,2.0,87,0.00,,,0.12,WUHU216HW,2013-05-31 03:32:00,
2013-05-30 23:37:00,74.3,70.3,30.10,ESE,113,0.0,2.0,87,0.00,,,0.12,WUHU216HW,2013-05-31 03:37:00,
2013-05-30 23:42:00,74.3,70.3,30.10,ESE,113,2.0,2.0,87,0.00,,,0.12,WUHU216HW,2013-05-31 03:42:00,
2013-05-30 23:47:00,74.2,70.1,30.10,ESE,113,1.3,2.0,87,0.00,,,0.12,WUHU216HW,2013-05-31 03:47:00,
2013-05-30 23:52:00,74.2,69.8,30.10,SE,135,0.4,2.0,86,0.00,,,0.12,WUHU216HW,2013-05-31 03:52:00,
2013-05-30 23:57:00,74.0,69.9,30.10,SE,135,0.4,1.3,87,0.00,,,0.12,WUHU216HW,2013-05-31 03:57:00,